LGSM - Información del aeropuerto


Mapa

Información de pistas
Pista 09 Longitud 6706 ft Anchura 148 ft
Elevación 20 ft Threshold 230 ft Heading 94
Pista 27 Longitud 6706 ft Anchura 148 ft
Elevación 10 ft Threshold 0 ft Heading 274
Frecuencias del aeropuerto
Tipo A/G Nombre RDO Frecuencia 563.7 MHZ
Tipo APP Nombre APP Frecuencia 122.1 MHZ
Tipo TWR Nombre TWR Frecuencia 122.1 MHZ
Radio-ayudas del aeropuerto
Tipo VOR-DME Nombre Samos Frecuencia 111600 KHZ
Tipo NDB Nombre Samos Frecuencia 375 KHZ
Información meteorología y NOTAM del aeropuerto
ADDS - METARS form results

(2329 UTC 23 October 2019)
Data provider http://aviationweather.gov/metar/data/
 
Forecast for: LGSM (SAMOS AIRPORT , GR)
Text: TAF LGSM 232300Z 2400/2409 36010KT 9999 FEW020
Forecast period: 0000 to 0900 UTC 24 October 2019
Forecast type: FROM: standard forecast or significant change
Winds: from the N (360 degrees) at 12 MPH (10 knots; 5.1 m/s)
Visibility: 6 or more miles 10+ km)
Ceiling: at least 12,000 feet AGL
Clouds: few clouds at 2000 feet AGL
Weather: no significant weather forecast for this period